createdAt,value
2023-03-30T00:02:12.803Z,13.10
2023-03-30T00:04:43.850Z,13.10
2023-03-30T00:07:12.044Z,13.20
2023-03-30T00:09:42.379Z,13.40
2023-03-30T00:12:10.578Z,13.40
2023-03-30T00:14:42.480Z,13.50
2023-03-30T00:17:11.577Z,13.60
2023-03-30T00:19:40.698Z,13.60
2023-03-30T00:22:10.478Z,13.60
2023-03-30T00:24:38.753Z,13.70
2023-03-30T00:27:07.012Z,13.70
2023-03-30T00:29:35.201Z,13.80
2023-03-30T00:32:04.729Z,13.90
2023-03-30T00:34:33.169Z,14.00
2023-03-30T00:37:01.417Z,14.00
2023-03-30T00:39:29.462Z,14.10
2023-03-30T00:41:57.628Z,14.10
2023-03-30T00:45:03.024Z,14.20
2023-03-30T00:47:32.778Z,14.20
2023-03-30T00:50:00.953Z,14.20
2023-03-30T00:52:29.121Z,14.30
2023-03-30T00:54:58.921Z,14.20
2023-03-30T00:57:28.584Z,14.20
2023-03-30T00:59:57.417Z,14.30
2023-03-30T01:02:25.986Z,14.30
2023-03-30T01:04:58.453Z,14.40
2023-03-30T01:07:27.449Z,14.30
2023-03-30T01:09:56.023Z,14.30
2023-03-30T01:12:24.211Z,14.30
2023-03-30T01:14:52.765Z,14.30
2023-03-30T01:17:30.266Z,14.30
2023-03-30T01:20:29.570Z,14.30
2023-03-30T01:23:27.133Z,14.30
2023-03-30T01:26:25.971Z,14.00
2023-03-30T01:28:58.214Z,13.90
2023-03-30T01:31:53.521Z,13.80
2023-03-30T01:35:10.227Z,13.70
2023-03-30T01:38:05.875Z,13.60
2023-03-30T01:40:41.217Z,13.60
2023-03-30T01:43:17.581Z,13.60
2023-03-30T01:45:55.822Z,13.60
2023-03-30T01:48:33.561Z,13.60
2023-03-30T01:51:08.024Z,13.60
2023-03-30T01:53:46.444Z,13.60
2023-03-30T01:56:24.386Z,13.60
2023-03-30T01:58:55.982Z,13.60
2023-03-30T02:01:26.215Z,13.60
2023-03-30T02:03:58.569Z,13.60
2023-03-30T02:06:38.650Z,13.50
2023-03-30T02:09:09.199Z,13.50
2023-03-30T02:11:40.899Z,13.50
2023-03-30T02:14:12.108Z,13.40
2023-03-30T02:16:47.288Z,13.40
2023-03-30T02:19:16.970Z,13.30
2023-03-30T02:21:45.326Z,13.30
2023-03-30T02:24:18.259Z,13.20
2023-03-30T02:26:50.428Z,13.20
2023-03-30T02:29:18.817Z,13.10
2023-03-30T02:31:49.444Z,13.10
2023-03-30T02:34:27.424Z,13.00
2023-03-30T02:37:24.159Z,13.00
2023-03-30T02:40:08.919Z,13.10
2023-03-30T02:43:03.616Z,13.00
2023-03-30T02:45:46.484Z,13.00
2023-03-30T02:48:28.371Z,12.90
2023-03-30T02:51:08.871Z,12.90
2023-03-30T02:54:01.228Z,12.80
2023-03-30T02:56:59.856Z,12.60
2023-03-30T02:59:36.993Z,12.50
2023-03-30T03:02:10.455Z,12.40
2023-03-30T03:04:43.393Z,12.40
2023-03-30T03:07:25.824Z,12.30
2023-03-30T03:09:54.245Z,12.30
2023-03-30T03:12:23.552Z,12.30
2023-03-30T03:14:53.971Z,12.40
2023-03-30T03:17:22.845Z,12.40
2023-03-30T03:19:53.490Z,12.30
2023-03-30T03:22:21.898Z,12.30
2023-03-30T03:24:52.848Z,12.20
2023-03-30T03:27:41.566Z,12.10
2023-03-30T03:30:17.752Z,12.10
2023-03-30T03:32:53.391Z,12.20
2023-03-30T03:35:21.940Z,12.20
2023-03-30T03:37:50.614Z,12.30
2023-03-30T03:40:21.283Z,12.30
2023-03-30T03:42:52.385Z,12.30
2023-03-30T03:45:21.970Z,12.40
2023-03-30T03:47:59.031Z,12.40
2023-03-30T03:50:55.203Z,12.40
2023-03-30T03:53:24.260Z,12.40
2023-03-30T03:55:56.335Z,12.40
2023-03-30T03:58:25.772Z,12.40
2023-03-30T04:00:59.864Z,12.40
2023-03-30T04:03:28.221Z,12.40
2023-03-30T04:05:59.088Z,12.40
2023-03-30T04:08:30.676Z,12.30
2023-03-30T04:11:13.948Z,12.30
2023-03-30T04:14:11.259Z,12.20
2023-03-30T04:16:51.328Z,12.30
2023-03-30T04:19:27.735Z,12.30
2023-03-30T04:22:31.047Z,12.30
2023-03-30T04:25:29.321Z,12.30
2023-03-30T04:28:21.911Z,12.30
2023-03-30T04:30:59.026Z,12.30
2023-03-30T04:33:47.422Z,12.30
2023-03-30T04:36:35.761Z,12.30
2023-03-30T04:39:30.446Z,12.30
2023-03-30T04:41:58.621Z,12.40
2023-03-30T04:44:40.016Z,12.30
2023-03-30T04:47:32.125Z,12.50
2023-03-30T04:50:24.623Z,12.50
2023-03-30T04:53:11.253Z,12.50
2023-03-30T04:56:02.093Z,12.40
2023-03-30T04:58:51.697Z,12.50
2023-03-30T05:01:47.187Z,12.40
2023-03-30T05:04:33.955Z,12.30
2023-03-30T05:07:23.650Z,12.30
2023-03-30T05:10:12.229Z,12.20
2023-03-30T05:12:59.247Z,12.10
2023-03-30T05:15:42.207Z,12.10
2023-03-30T05:18:30.540Z,12.00
2023-03-30T05:21:17.030Z,12.00
2023-03-30T05:23:49.304Z,12.20
2023-03-30T05:26:39.791Z,12.00
2023-03-30T05:29:36.853Z,12.00
2023-03-30T05:32:43.649Z,12.00
2023-03-30T05:35:14.329Z,11.90
2023-03-30T05:37:51.846Z,11.90
2023-03-30T05:40:41.686Z,11.90
2023-03-30T05:43:19.931Z,11.80
2023-03-30T05:46:09.662Z,11.80
2023-03-30T05:48:57.619Z,11.80
2023-03-30T05:51:33.901Z,11.80
2023-03-30T05:54:13.046Z,11.90
2023-03-30T05:57:06.364Z,11.80
2023-03-30T05:59:53.017Z,11.80
2023-03-30T06:02:40.679Z,11.80
2023-03-30T06:05:14.354Z,11.80
2023-03-30T06:07:46.198Z,11.80
2023-03-30T06:10:14.636Z,11.80
2023-03-30T06:12:45.937Z,11.80
2023-03-30T06:15:28.396Z,11.80
2023-03-30T06:18:08.597Z,11.80
2023-03-30T06:20:40.327Z,11.80
2023-03-30T06:23:08.440Z,11.90
2023-03-30T06:25:37.027Z,11.90
2023-03-30T06:28:06.519Z,11.90
2023-03-30T06:30:35.972Z,11.80
2023-03-30T06:33:09.489Z,11.90
2023-03-30T06:35:47.289Z,11.80
2023-03-30T06:38:18.223Z,11.80
2023-03-30T06:40:46.976Z,11.80
2023-03-30T06:43:19.707Z,11.80
2023-03-30T06:46:14.769Z,11.80
2023-03-30T06:48:47.509Z,11.90
2023-03-30T06:51:38.305Z,11.90
2023-03-30T06:54:07.971Z,12.00
2023-03-30T06:56:37.958Z,12.00
2023-03-30T06:59:17.967Z,12.00
2023-03-30T07:02:13.537Z,12.00
2023-03-30T07:05:01.171Z,12.00
2023-03-30T07:07:38.290Z,12.00
2023-03-30T07:10:10.370Z,11.90
2023-03-30T07:12:41.674Z,12.10
2023-03-30T07:15:12.355Z,12.20
2023-03-30T07:17:46.612Z,12.20
2023-03-30T07:20:16.019Z,12.40
2023-03-30T07:22:59.592Z,12.60
2023-03-30T07:25:34.093Z,12.70
2023-03-30T07:28:10.577Z,12.80
2023-03-30T07:30:41.351Z,12.80
2023-03-30T07:33:11.615Z,12.80
2023-03-30T07:35:45.086Z,12.80
2023-03-30T07:38:14.573Z,13.00
2023-03-30T07:40:48.632Z,13.10
2023-03-30T07:43:17.468Z,13.10
2023-03-30T07:45:47.462Z,13.10
2023-03-30T07:48:23.073Z,13.20
2023-03-30T07:50:52.358Z,13.60
2023-03-30T07:53:22.730Z,13.50
2023-03-30T07:55:51.431Z,13.40
2023-03-30T07:58:27.667Z,13.40
2023-03-30T08:00:57.688Z,13.30
2023-03-30T08:03:32.976Z,13.20
2023-03-30T08:06:05.371Z,13.10
2023-03-30T08:08:38.847Z,13.00
2023-03-30T08:11:08.256Z,13.00
2023-03-30T08:13:37.371Z,13.00
2023-03-30T08:16:09.210Z,12.90
2023-03-30T08:18:38.156Z,12.80
2023-03-30T08:21:06.918Z,12.70
2023-03-30T08:23:35.460Z,12.60
2023-03-30T08:26:03.605Z,12.50
2023-03-30T08:28:31.892Z,12.40
2023-03-30T08:31:04.971Z,12.30
2023-03-30T08:33:34.863Z,12.30
2023-03-30T08:36:02.938Z,12.20
2023-03-30T08:38:31.595Z,12.30
2023-03-30T08:41:00.241Z,12.40
2023-03-30T08:43:40.477Z,12.60
2023-03-30T08:46:16.021Z,12.70
2023-03-30T08:48:46.552Z,12.80
2023-03-30T08:51:23.424Z,12.80
2023-03-30T08:53:54.669Z,12.80
2023-03-30T08:56:26.225Z,12.70
2023-03-30T08:59:04.347Z,12.80
2023-03-30T09:01:36.311Z,12.70
2023-03-30T09:04:17.784Z,12.70
2023-03-30T09:06:51.758Z,12.70
2023-03-30T09:09:22.444Z,12.60
2023-03-30T09:11:56.274Z,12.60
2023-03-30T09:14:32.906Z,12.70
2023-03-30T09:17:07.674Z,12.80
2023-03-30T09:19:46.999Z,12.90
2023-03-30T09:22:16.353Z,13.10
2023-03-30T09:24:45.590Z,13.20
2023-03-30T09:27:20.228Z,13.30
2023-03-30T09:29:50.022Z,13.30
2023-03-30T09:32:26.051Z,13.40
2023-03-30T09:35:00.226Z,13.20
2023-03-30T09:37:29.765Z,13.50
2023-03-30T09:40:01.554Z,13.70
2023-03-30T09:42:35.199Z,13.50
2023-03-30T09:45:08.949Z,13.50
2023-03-30T09:47:39.138Z,13.50
2023-03-30T09:50:10.559Z,13.50
2023-03-30T09:52:41.658Z,13.60
2023-03-30T09:55:27.222Z,13.70
2023-03-30T09:58:10.877Z,14.00
2023-03-30T10:00:39.452Z,14.40
2023-03-30T10:03:11.396Z,14.60
2023-03-30T10:05:41.990Z,14.90
2023-03-30T10:08:24.866Z,15.10
2023-03-30T10:10:56.251Z,15.20
2023-03-30T10:13:31.124Z,15.30
2023-03-30T10:16:05.708Z,15.30
2023-03-30T10:18:40.551Z,15.30
2023-03-30T10:21:22.772Z,15.30
2023-03-30T10:24:03.825Z,15.20
2023-03-30T10:26:34.617Z,15.10
2023-03-30T10:29:05.084Z,15.20
2023-03-30T10:31:36.894Z,15.10
2023-03-30T10:34:07.128Z,15.10
2023-03-30T10:36:40.775Z,15.10
2023-03-30T10:39:15.970Z,15.30
2023-03-30T10:41:44.470Z,15.30
2023-03-30T10:44:23.080Z,15.50
2023-03-30T10:46:54.224Z,15.40
2023-03-30T10:49:34.523Z,15.40
2023-03-30T10:52:12.092Z,15.40
2023-03-30T10:54:44.126Z,15.30
2023-03-30T10:57:20.514Z,15.40
2023-03-30T11:00:15.508Z,15.40
2023-03-30T11:02:55.602Z,15.30
2023-03-30T11:05:32.563Z,15.20
2023-03-30T11:08:06.789Z,15.10
2023-03-30T11:10:38.315Z,15.10
2023-03-30T11:13:08.449Z,15.00
2023-03-30T11:15:41.969Z,15.00
2023-03-30T11:18:18.588Z,14.90
2023-03-30T11:20:52.898Z,15.00
2023-03-30T11:23:31.015Z,14.90
2023-03-30T11:26:03.538Z,15.00
2023-03-30T11:28:48.372Z,15.10
2023-03-30T11:31:27.872Z,15.20
2023-03-30T11:34:01.820Z,15.10
2023-03-30T11:36:35.034Z,15.10
2023-03-30T11:39:28.854Z,15.00
2023-03-30T11:42:06.231Z,15.20
2023-03-30T11:44:35.073Z,15.40
2023-03-30T11:47:16.505Z,15.50
2023-03-30T11:50:02.719Z,15.60
2023-03-30T11:52:35.493Z,15.60
2023-03-30T11:55:24.575Z,15.80
2023-03-30T11:58:07.383Z,16.00
2023-03-30T12:00:52.425Z,16.00
2023-03-30T12:03:37.972Z,15.80
2023-03-30T12:06:17.099Z,15.70
2023-03-30T12:09:00.724Z,15.70
2023-03-30T12:11:38.358Z,15.60
2023-03-30T12:14:23.860Z,15.70
2023-03-30T12:16:57.076Z,15.80
2023-03-30T12:19:29.475Z,16.20
2023-03-30T12:22:03.654Z,16.30
2023-03-30T12:24:37.831Z,16.30
2023-03-30T12:27:11.865Z,16.10
2023-03-30T12:30:02.650Z,15.90
2023-03-30T12:32:36.086Z,15.70
2023-03-30T12:35:42.821Z,15.60
2023-03-30T12:38:21.838Z,15.50
2023-03-30T12:41:05.199Z,15.50
2023-03-30T12:43:43.609Z,15.50
2023-03-30T12:46:20.405Z,15.60
2023-03-30T12:48:58.733Z,15.70
2023-03-30T12:51:46.220Z,15.80
2023-03-30T12:54:33.652Z,15.80
2023-03-30T12:57:10.045Z,15.90
2023-03-30T13:00:16.716Z,15.90
2023-03-30T13:03:02.329Z,15.60
2023-03-30T13:05:33.637Z,15.40
2023-03-30T13:08:05.768Z,15.20
2023-03-30T13:10:51.058Z,15.20
2023-03-30T13:13:24.248Z,15.00
2023-03-30T13:15:54.884Z,14.90
2023-03-30T13:18:42.154Z,14.90
2023-03-30T13:21:23.877Z,15.00
2023-03-30T13:24:06.713Z,15.10
2023-03-30T13:26:44.661Z,15.10
2023-03-30T13:29:15.235Z,15.30
2023-03-30T13:32:04.753Z,15.50
2023-03-30T13:35:05.465Z,15.70
2023-03-30T13:37:58.840Z,15.70
2023-03-30T13:40:40.220Z,15.60
2023-03-30T13:43:22.024Z,15.40
2023-03-30T13:46:09.661Z,15.40
2023-03-30T13:49:01.132Z,15.50
2023-03-30T13:51:30.368Z,15.80
2023-03-30T13:54:02.797Z,15.80
2023-03-30T13:56:33.367Z,15.60
2023-03-30T13:59:07.219Z,15.40
2023-03-30T14:01:39.327Z,15.40
2023-03-30T14:04:11.152Z,15.30
2023-03-30T14:06:47.939Z,15.20
2023-03-30T14:09:22.619Z,15.10
2023-03-30T14:11:53.562Z,15.10
2023-03-30T14:14:28.143Z,15.00
2023-03-30T14:16:57.103Z,15.00
2023-03-30T14:19:27.491Z,15.10
2023-03-30T14:21:58.323Z,15.10
2023-03-30T14:24:31.807Z,15.10
2023-03-30T14:27:06.899Z,15.20
2023-03-30T14:29:45.365Z,15.20
2023-03-30T14:32:15.593Z,15.30
2023-03-30T14:34:48.433Z,15.20
2023-03-30T14:37:18.521Z,15.30
2023-03-30T14:39:52.225Z,15.40
2023-03-30T14:42:22.422Z,15.50
2023-03-30T14:44:54.697Z,15.60
2023-03-30T14:47:25.694Z,15.90
2023-03-30T14:49:57.571Z,15.80
2023-03-30T14:52:30.066Z,15.80
2023-03-30T14:55:07.340Z,15.90
2023-03-30T14:57:39.393Z,15.90
2023-03-30T15:00:18.241Z,15.80
2023-03-30T15:02:46.818Z,15.70
2023-03-30T15:05:18.389Z,15.60
2023-03-30T15:07:50.312Z,15.40
2023-03-30T15:10:27.859Z,15.30
2023-03-30T15:12:58.689Z,15.30
2023-03-30T15:15:32.831Z,15.40
2023-03-30T15:18:03.490Z,15.50
2023-03-30T15:20:35.751Z,15.40
2023-03-30T15:23:04.385Z,15.30
2023-03-30T15:25:35.220Z,15.30
2023-03-30T15:28:07.490Z,15.20
2023-03-30T15:30:40.391Z,15.20
2023-03-30T15:33:21.173Z,15.30
2023-03-30T15:35:52.202Z,15.30
2023-03-30T15:38:29.582Z,15.50
2023-03-30T15:40:57.773Z,15.50
2023-03-30T15:43:27.148Z,15.50
2023-03-30T15:46:03.046Z,15.40
2023-03-30T15:48:43.143Z,15.30
2023-03-30T15:51:16.526Z,14.90
2023-03-30T15:53:51.655Z,14.20
2023-03-30T15:56:23.664Z,13.90
2023-03-30T15:58:52.710Z,13.80
2023-03-30T16:01:24.316Z,13.80
2023-03-30T16:03:57.216Z,13.70
2023-03-30T16:06:25.873Z,13.70
2023-03-30T16:08:55.916Z,13.70
2023-03-30T16:11:24.329Z,13.80
2023-03-30T16:13:54.500Z,13.90
2023-03-30T16:16:23.952Z,14.10
2023-03-30T16:18:52.164Z,14.30
2023-03-30T16:21:24.393Z,14.40
2023-03-30T16:23:52.788Z,14.50
2023-03-30T16:26:20.851Z,14.70
2023-03-30T16:28:52.772Z,15.00
2023-03-30T16:31:24.117Z,15.20
2023-03-30T16:33:52.722Z,15.40
2023-03-30T16:36:24.175Z,15.50
2023-03-30T16:38:52.499Z,15.50
2023-03-30T16:41:22.461Z,15.50
2023-03-30T16:43:50.901Z,15.30
2023-03-30T16:46:22.163Z,15.30
2023-03-30T16:48:51.757Z,15.20
2023-03-30T16:51:20.157Z,15.10
2023-03-30T16:53:48.287Z,15.00
2023-03-30T16:56:18.371Z,15.00
2023-03-30T16:58:47.615Z,15.10
2023-03-30T17:01:18.563Z,15.00
2023-03-30T17:03:48.015Z,14.80
2023-03-30T17:06:17.724Z,14.60
2023-03-30T17:08:46.477Z,14.50
2023-03-30T17:11:14.574Z,14.40
2023-03-30T17:13:43.189Z,14.30
2023-03-30T17:16:13.473Z,14.30
2023-03-30T17:18:42.091Z,14.20
2023-03-30T17:21:16.160Z,14.30
2023-03-30T17:23:47.651Z,14.20
2023-03-30T17:26:16.170Z,14.20
2023-03-30T17:28:44.632Z,14.20
2023-03-30T17:31:16.683Z,14.10
2023-03-30T17:33:45.146Z,14.10
2023-03-30T17:36:21.294Z,13.70
2023-03-30T17:38:51.844Z,13.00
2023-03-30T17:41:22.415Z,12.30
2023-03-30T17:43:51.517Z,11.90
2023-03-30T17:46:20.760Z,11.60
2023-03-30T17:48:50.984Z,11.50
2023-03-30T17:51:19.024Z,11.30
2023-03-30T17:53:47.118Z,11.30
2023-03-30T17:56:16.971Z,11.20
2023-03-30T17:58:45.381Z,11.10
2023-03-30T18:01:13.843Z,11.10
2023-03-30T18:03:42.875Z,11.10
2023-03-30T18:06:13.328Z,11.10
2023-03-30T18:08:42.975Z,11.10
2023-03-30T18:11:11.384Z,11.10
2023-03-30T18:13:41.177Z,11.10
2023-03-30T18:16:13.025Z,11.20
2023-03-30T18:18:42.667Z,11.20
2023-03-30T18:21:11.878Z,11.20
2023-03-30T18:23:39.805Z,11.20
2023-03-30T18:26:12.228Z,11.10
2023-03-30T18:28:43.578Z,11.70
2023-03-30T18:31:12.368Z,11.20
2023-03-30T18:33:41.015Z,11.10
2023-03-30T18:36:13.118Z,11.10
2023-03-30T18:38:41.944Z,11.00
2023-03-30T18:41:12.808Z,11.00
2023-03-30T18:43:42.613Z,10.90
2023-03-30T18:46:14.967Z,10.80
2023-03-30T18:48:43.056Z,11.00
2023-03-30T18:51:12.794Z,10.60
2023-03-30T18:53:42.769Z,10.50
2023-03-30T18:56:14.618Z,10.40
2023-03-30T18:58:44.090Z,10.30
2023-03-30T19:01:16.040Z,10.20
2023-03-30T19:03:44.738Z,10.50
2023-03-30T19:06:16.401Z,10.10
2023-03-30T19:08:44.497Z,10.00
2023-03-30T19:11:19.342Z,10.00
2023-03-30T19:13:49.882Z,9.90
2023-03-30T19:16:18.745Z,9.90
2023-03-30T19:18:48.319Z,9.90
2023-03-30T19:21:18.609Z,9.90
2023-03-30T19:23:46.783Z,10.20
2023-03-30T19:26:14.816Z,10.00
2023-03-30T19:28:43.190Z,10.00
2023-03-30T19:31:15.883Z,10.10
2023-03-30T19:33:44.067Z,10.20
2023-03-30T19:36:12.136Z,10.30
2023-03-30T19:38:40.287Z,10.10
2023-03-30T19:41:08.522Z,10.10
2023-03-30T19:43:36.760Z,10.10
2023-03-30T19:46:05.112Z,10.00
2023-03-30T19:48:34.800Z,10.00
2023-03-30T19:51:03.527Z,9.90
2023-03-30T19:53:31.815Z,9.90
2023-03-30T19:56:01.905Z,10.10
2023-03-30T19:58:29.992Z,9.70
2023-03-30T20:00:58.218Z,9.90
2023-03-30T20:03:30.197Z,9.80
2023-03-30T20:06:02.919Z,9.90
2023-03-30T20:08:32.923Z,9.90
2023-03-30T20:11:01.354Z,9.90
2023-03-30T20:13:29.562Z,9.90
2023-03-30T20:15:57.571Z,9.90
2023-03-30T20:18:25.633Z,9.90
2023-03-30T20:20:56.645Z,10.00
2023-03-30T20:23:26.928Z,10.00
2023-03-30T20:25:57.142Z,10.00
2023-03-30T20:28:25.205Z,10.00
2023-03-30T20:30:57.031Z,10.00
2023-03-30T20:33:25.348Z,10.00
2023-03-30T20:35:53.625Z,10.00
2023-03-30T20:38:21.705Z,10.00
2023-03-30T20:41:04.122Z,9.90
2023-03-30T20:43:35.019Z,9.90
2023-03-30T20:46:09.618Z,9.80
2023-03-30T20:48:39.196Z,9.80
2023-03-30T20:51:09.213Z,9.80
2023-03-30T20:53:37.685Z,9.70
2023-03-30T20:56:10.394Z,9.70
2023-03-30T20:58:39.932Z,9.60
2023-03-30T21:01:25.354Z,9.60
2023-03-30T21:03:57.575Z,9.50
2023-03-30T21:06:27.779Z,9.50
2023-03-30T21:08:57.792Z,9.50
2023-03-30T21:11:27.968Z,9.50
2023-03-30T21:13:57.035Z,9.50
2023-03-30T21:16:26.671Z,9.50
2023-03-30T21:18:55.349Z,9.50
2023-03-30T21:21:23.491Z,9.60
2023-03-30T21:23:52.219Z,9.50
2023-03-30T21:26:20.211Z,9.50
2023-03-30T21:28:50.396Z,9.50
2023-03-30T21:31:18.605Z,9.40
2023-03-30T21:33:46.938Z,9.50
2023-03-30T21:36:15.181Z,9.50
2023-03-30T21:38:43.324Z,9.50
2023-03-30T21:41:14.296Z,9.60
2023-03-30T21:43:44.419Z,9.60
2023-03-30T21:46:18.999Z,9.60
2023-03-30T21:48:48.713Z,9.60
2023-03-30T21:51:23.683Z,9.60
2023-03-30T21:53:53.390Z,9.60
2023-03-30T21:56:23.652Z,9.50
2023-03-30T21:58:52.190Z,9.60
2023-03-30T22:01:24.322Z,9.60
2023-03-30T22:03:53.173Z,9.70
2023-03-30T22:06:22.105Z,9.70
2023-03-30T22:08:50.657Z,9.80
2023-03-30T22:11:20.382Z,10.00
2023-03-30T22:13:49.053Z,9.90
2023-03-30T22:16:18.832Z,10.00
2023-03-30T22:18:48.977Z,10.40
2023-03-30T22:21:19.266Z,10.00
2023-03-30T22:23:47.581Z,10.00
2023-03-30T22:26:16.369Z,10.10
2023-03-30T22:28:44.836Z,10.10
2023-03-30T22:31:14.966Z,10.10
2023-03-30T22:33:43.282Z,10.10
2023-03-30T22:36:19.560Z,10.60
2023-03-30T22:38:51.803Z,10.10
2023-03-30T22:41:23.815Z,10.20
2023-03-30T22:43:53.110Z,10.20
2023-03-30T22:46:21.400Z,10.20
2023-03-30T22:48:51.885Z,10.20
2023-03-30T22:51:26.134Z,10.20
2023-03-30T22:53:56.351Z,10.60
2023-03-30T22:56:24.858Z,10.20
2023-03-30T22:58:53.003Z,10.20
2023-03-30T23:01:21.508Z,10.10
2023-03-30T23:03:50.336Z,10.10
2023-03-30T23:06:19.115Z,10.10
2023-03-30T23:08:49.142Z,10.10
2023-03-30T23:11:21.516Z,10.20
2023-03-30T23:13:49.578Z,10.20
2023-03-30T23:16:17.751Z,10.30
2023-03-30T23:18:45.921Z,10.30
2023-03-30T23:21:14.585Z,10.30
2023-03-30T23:23:42.734Z,10.30
2023-03-30T23:26:12.659Z,10.40
2023-03-30T23:28:42.628Z,10.40
2023-03-30T23:31:12.332Z,10.40
2023-03-30T23:33:40.550Z,10.40
2023-03-30T23:36:09.927Z,10.50
2023-03-30T23:38:38.459Z,10.40
2023-03-30T23:41:10.604Z,10.40
2023-03-30T23:43:40.024Z,10.50
2023-03-30T23:46:11.360Z,10.50
2023-03-30T23:48:39.751Z,10.60
2023-03-30T23:51:08.746Z,10.50
2023-03-30T23:53:40.541Z,10.50
2023-03-30T23:56:13.292Z,10.50
2023-03-30T23:58:43.212Z,10.50
